Pandora, Ohio
Current Conditions -  °F | °C
As of 6:53 PM on Monday 20 Oct 2014 (Local Time) from KFDY Reporting Station
Overcast Overcast  
Wind Chill: 55°   Ceiling: 2800
Heat Index: 55°   Visibility: 7mi
Dew Point: 52°   Wind: 5mph
Humidity: 89%   Direction: 250°WSW
Pressure: 29.83"   Gusts: NA
Location:  40.95°N, 83.96°W
Report Text: KFDY 202253Z AUTO 25004KT 7SM OVC028 13/11 A2983 RMK AO2 SLP100 T01280111
Loading
Personal Weather Stations






























Interactive Weather Map
Tropical Storm Tracking
New forecast layout! Learn more

10-Day Weather Forecast

Advertisements
Track Severe Weather on mobile